Time;durP1;ratioP1;P1;durP2;ratioP2;P2;SDS_P1;SDS_P2;PMS_P1;PMS_P2;Temp;Humidity;BMP_temperature;BMP_pressure;BME280_temperature;BME280_humidity;BME280_pressure;Samples;Min_cycle;Max_cycle;Signal;HPM_P1;HPM_P2
2022/01/15 00:00:20;;;;;;;68.55;30.33;;;0.20;99.90;;;;;;4988663;28;20054;-82
2022/01/15 00:02:48;;;;;;;68.53;30.77;;;0.10;99.90;;;;;;4989615;28;20047;-80
2022/01/15 00:05:16;;;;;;;77.43;32.65;;;0.10;99.90;;;;;;4988214;28;20054;-78
2022/01/15 00:07:47;;;;;;;71.32;31.70;;;0.10;99.90;;;;;;4989550;28;20050;-80
2022/01/15 00:10:18;;;;;;;65.75;30.55;;;0.10;99.90;;;;;;4987348;28;20053;-78
2022/01/15 00:12:45;;;;;;;67.57;29.77;;;0.00;99.90;;;;;;4988677;28;20392;-79
2022/01/15 00:15:27;;;;;;;68.95;29.45;;;0.00;99.90;;;;;;4990005;28;20077;-81
2022/01/15 00:18:15;;;;;;;81.22;29.70;;;0.00;99.90;;;;;;4987761;28;20054;-82
2022/01/15 00:20:42;;;;;;;;;;;0.00;99.90;;;;;;4988655;28;20057;-81
2022/01/15 00:23:10;;;;;;;63.95;27.52;;;0.00;99.90;;;;;;4988054;28;19933;-79
2022/01/15 00:25:38;;;;;;;59.05;26.95;;;0.00;99.90;;;;;;4989351;28;20533;-80
2022/01/15 00:28:05;;;;;;;66.22;28.10;;;-0.10;99.90;;;;;;4988323;28;20050;-80
2022/01/15 00:30:33;;;;;;;65.90;28.00;;;-0.10;99.90;;;;;;4988104;28;20042;-80
2022/01/15 00:33:01;;;;;;;66.28;28.90;;;-0.10;99.90;;;;;;4989119;28;20513;-79
2022/01/15 00:35:29;;;;;;;64.20;28.08;;;-0.10;99.90;;;;;;4987327;28;20062;-82
2022/01/15 00:37:56;;;;;;;62.53;28.30;;;-0.10;99.90;;;;;;4987612;28;20065;-82
2022/01/15 00:40:24;;;;;;;61.88;27.20;;;-0.10;99.90;;;;;;4987913;28;20061;-81
2022/01/15 00:42:52;;;;;;;51.17;24.83;;;-0.20;99.90;;;;;;4987801;28;20065;-82
2022/01/15 00:45:22;;;;;;;70.70;26.15;;;-0.20;99.90;;;;;;4971744;28;20054;-80
2022/01/15 00:47:51;;;;;;;65.00;26.35;;;-0.20;99.90;;;;;;4986121;28;20058;-79
2022/01/15 00:50:20;;;;;;;57.20;26.67;;;-0.30;99.90;;;;;;4970958;28;20058;-80
2022/01/15 00:52:48;;;;;;;59.70;27.63;;;-0.30;99.90;;;;;;4987296;28;20053;-81
2022/01/15 00:55:18;;;;;;;59.45;27.02;;;-0.30;99.90;;;;;;4988958;28;20050;-81
2022/01/15 00:57:47;;;;;;;62.33;27.70;;;-0.30;99.90;;;;;;4987677;28;20051;-80
2022/01/15 01:00:22;;;;;;;54.22;26.23;;;-0.30;99.90;;;;;;4988574;28;20447;-80
2022/01/15 01:02:50;;;;;;;59.00;25.92;;;-0.30;99.90;;;;;;4986556;28;20062;-77
2022/01/15 01:05:20;;;;;;;60.17;26.70;;;-0.40;99.90;;;;;;5002629;28;20042;-79
2022/01/15 01:07:48;;;;;;;66.20;28.38;;;-0.40;99.90;;;;;;4988448;28;20065;-77
2022/01/15 01:13:15;;;;;;;71.93;27.98;;;-0.40;99.90;;;;;;4986049;28;20058;-80
2022/01/15 01:23:46;;;;;;;61.80;25.85;;;-0.40;99.90;;;;;;4986990;28;20049;-80
2022/01/15 01:26:32;;;;;;;60.78;27.13;;;-0.50;99.90;;;;;;4983050;28;20058;-79
2022/01/15 01:31:57;;;;;;;55.28;25.35;;;-0.50;99.90;;;;;;4967338;28;20063;-82
2022/01/15 01:34:27;;;;;;;53.65;25.45;;;-0.50;99.90;;;;;;4968337;28;20054;-81
2022/01/15 01:39:31;;;;;;;60.40;28.27;;;-0.60;99.90;;;;;;4967290;28;20240;-77
2022/01/15 01:42:15;;;;;;;75.38;28.67;;;-0.50;99.90;;;;;;4982554;28;20495;-79
2022/01/15 01:45:11;;;;;;;69.78;28.08;;;-0.60;99.90;;;;;;4986816;28;20053;-78
2022/01/15 01:47:41;;;;;;;66.65;27.65;;;-0.60;99.90;;;;;;4987112;28;20514;-80
2022/01/15 01:50:19;;;;;;;61.10;26.92;;;-0.60;99.90;;;;;;4986741;28;20055;-81
2022/01/15 01:52:51;;;;;;;65.05;29.27;;;-0.70;99.90;;;;;;4987867;28;20545;-80
2022/01/15 01:55:22;;;;;;;63.42;27.45;;;-0.70;99.90;;;;;;4986284;28;20064;-81
2022/01/15 01:57:51;;;;;;;59.83;27.20;;;-0.70;99.90;;;;;;4970615;28;20053;-81
2022/01/15 02:00:21;;;;;;;70.00;28.65;;;-0.70;99.90;;;;;;4988583;28;20053;-77
2022/01/15 02:02:50;;;;;;;69.63;30.45;;;-0.70;99.90;;;;;;4985960;28;20062;-81
2022/01/15 02:05:20;;;;;;;69.50;29.70;;;-0.70;99.90;;;;;;4970299;28;20054;-81
2022/01/15 02:07:48;;;;;;;70.93;31.52;;;-0.80;99.90;;;;;;4985778;28;20072;-81
2022/01/15 02:10:19;;;;;;;70.30;31.05;;;-0.80;99.90;;;;;;4970123;28;20047;-78
2022/01/15 02:12:50;;;;;;;71.20;30.45;;;-0.80;99.90;;;;;;4986096;28;20046;-80
2022/01/15 02:15:21;;;;;;;76.03;31.67;;;-0.80;99.90;;;;;;4967410;28;20046;-80
2022/01/15 02:17:50;;;;;;;72.28;31.70;;;-0.80;99.90;;;;;;4984898;28;20069;-79
2022/01/15 02:25:50;;;;;;;77.25;32.83;;;-0.80;99.90;;;;;;4985761;28;20051;-81
2022/01/15 02:28:21;;;;;;;79.28;33.47;;;-0.80;99.90;;;;;;4985761;28;20042;-80
2022/01/15 02:31:09;;;;;;;79.25;34.13;;;-0.80;99.90;;;;;;4985762;28;20046;-78
2022/01/15 02:33:38;;;;;;;80.13;35.90;;;-0.80;99.90;;;;;;4984815;28;20575;-81
2022/01/15 02:36:09;;;;;;;89.93;36.80;;;-0.80;99.90;;;;;;4969397;28;20407;-81
2022/01/15 02:38:38;;;;;;;83.20;35.08;;;-0.80;99.90;;;;;;4984983;28;20054;-81
2022/01/15 02:41:06;;;;;;;84.22;35.85;;;-0.90;99.90;;;;;;4985694;28;20042;-81
2022/01/15 02:43:35;;;;;;;82.72;36.08;;;-0.90;99.90;;;;;;4984050;28;20050;-82
2022/01/15 02:49:01;;;;;;;85.63;35.47;;;-0.80;99.90;;;;;;4984952;28;20388;-81
2022/01/15 02:51:31;;;;;;;83.93;36.55;;;-0.90;99.90;;;;;;4985272;28;20047;-80
2022/01/15 02:54:00;;;;;;;93.20;39.80;;;-0.90;99.90;;;;;;4969704;28;20050;-78
2022/01/15 02:56:33;;;;;;;92.63;37.83;;;-0.90;99.90;;;;;;4986193;28;20058;-80
2022/01/15 02:59:03;;;;;;;91.45;38.08;;;-0.90;99.90;;;;;;4986056;28;20502;-80
2022/01/15 03:01:31;;;;;;;91.38;38.55;;;-0.90;99.90;;;;;;4986862;28;20511;-80
2022/01/15 03:04:00;;;;;;;91.22;38.42;;;-0.90;99.90;;;;;;4985705;28;20067;-81
2022/01/15 03:06:28;;;;;;;95.93;41.00;;;-0.90;99.90;;;;;;5001900;28;20510;-78
2022/01/15 03:08:55;;;;;;;96.28;41.05;;;-1.00;99.90;;;;;;4984330;28;20106;-77
2022/01/15 03:11:24;;;;;;;97.78;40.72;;;-0.90;99.90;;;;;;4986873;28;20051;-80
2022/01/15 03:13:51;;;;;;;90.28;39.60;;;-1.00;99.90;;;;;;4987371;28;20053;-78
2022/01/15 03:16:21;;;;;;;89.38;39.58;;;-1.00;99.90;;;;;;4987193;28;20393;-78
2022/01/15 03:18:50;;;;;;;99.53;40.47;;;-1.00;99.90;;;;;;4987174;28;20590;-78
2022/01/15 03:21:18;;;;;;;96.03;41.88;;;-1.00;99.90;;;;;;4985792;28;20046;-77
2022/01/15 03:23:48;;;;;;;103.60;42.42;;;-1.00;99.90;;;;;;4985629;28;20067;-79
2022/01/15 03:26:16;;;;;;;114.63;45.20;;;-1.00;99.90;;;;;;4986304;28;20061;-82
2022/01/15 03:28:43;;;;;;;117.75;45.10;;;-1.00;99.90;;;;;;4991489;28;20042;-79
2022/01/15 03:31:11;;;;;;;111.65;45.13;;;-1.00;99.90;;;;;;4990001;28;20054;-82
2022/01/15 03:33:40;;;;;;;;;;;-1.00;99.90;;;;;;4989842;28;20061;-80
2022/01/15 03:36:08;;;;;;;110.65;41.90;;;-1.00;99.90;;;;;;4991124;28;19928;-80
2022/01/15 03:38:36;;;;;;;157.07;49.28;;;-1.00;99.90;;;;;;4989739;28;20055;-81
2022/01/15 03:41:04;;;;;;;185.25;50.33;;;-0.90;99.90;;;;;;4990769;28;20050;-81
2022/01/15 03:43:32;;;;;;;;;;;-0.90;99.90;;;;;;4990105;28;20061;-79
2022/01/15 03:46:00;;;;;;;;;;;-0.80;99.90;;;;;;5006430;28;19929;-78
2022/01/15 03:48:28;;;;;;;224.43;46.05;;;-0.80;99.90;;;;;;4990868;28;19929;-79
2022/01/15 03:50:56;;;;;;;302.75;48.80;;;-0.70;99.90;;;;;;4989549;28;20066;-78
2022/01/15 03:53:24;;;;;;;233.73;50.60;;;-0.70;99.90;;;;;;4989145;28;20054;-82
2022/01/15 03:55:52;;;;;;;358.23;53.92;;;-0.70;99.90;;;;;;4989884;28;20066;-77
2022/01/15 03:58:20;;;;;;;535.17;62.13;;;-0.70;99.90;;;;;;4989499;28;20414;-78
2022/01/15 04:00:48;;;;;;;291.13;53.05;;;-0.70;99.90;;;;;;4989556;28;20061;-80
2022/01/15 04:03:17;;;;;;;353.80;51.95;;;-0.60;99.90;;;;;;4990240;28;20057;-78
2022/01/15 04:05:44;;;;;;;548.10;61.47;;;-0.60;99.90;;;;;;4989068;28;20490;-78
2022/01/15 04:08:12;;;;;;;345.70;52.42;;;-0.50;99.90;;;;;;4990701;28;20054;-79
2022/01/15 04:10:42;;;;;;;318.20;53.53;;;-0.50;99.90;;;;;;4990118;28;20495;-77
2022/01/15 04:13:11;;;;;;;391.20;56.75;;;-0.50;99.90;;;;;;4990401;28;20046;-82
2022/01/15 04:15:39;;;;;;;412.05;56.47;;;-0.50;99.90;;;;;;4989188;28;20051;-77
2022/01/15 04:18:06;;;;;;;247.90;48.88;;;-0.50;99.90;;;;;;4989667;28;20467;-76
2022/01/15 04:20:34;;;;;;;359.05;54.88;;;-0.50;99.90;;;;;;5005355;28;20050;-80
2022/01/15 04:23:02;;;;;;;335.98;51.85;;;-0.50;99.90;;;;;;4990411;28;20050;-77
2022/01/15 04:25:30;;;;;;;322.20;51.92;;;-0.40;99.90;;;;;;4988072;28;20519;-78
2022/01/15 04:28:01;;;;;;;211.73;46.72;;;-0.40;99.90;;;;;;4989307;28;20050;-76
2022/01/15 04:30:34;;;;;;;156.80;48.17;;;-0.30;99.90;;;;;;4990379;28;20054;-79
2022/01/15 04:33:01;;;;;;;;;;;-0.40;99.90;;;;;;4989114;28;20400;-76
2022/01/15 04:35:29;;;;;;;128.95;44.80;;;-0.40;99.90;;;;;;4990122;28;19936;-79
2022/01/15 04:38:04;;;;;;;108.10;45.28;;;-0.30;99.90;;;;;;4990147;28;20475;-76
2022/01/15 04:40:32;;;;;;;109.82;44.20;;;-0.30;99.90;;;;;;4989406;28;20054;-76
2022/01/15 04:43:00;;;;;;;119.60;46.47;;;-0.20;99.90;;;;;;4988202;28;20128;-77
2022/01/15 04:45:28;;;;;;;109.13;44.95;;;-0.20;99.90;;;;;;4987984;28;20443;-81
2022/01/15 04:47:55;;;;;;;124.72;46.85;;;-0.20;99.90;;;;;;5001857;28;20050;-82
2022/01/15 04:50:23;;;;;;;125.50;47.10;;;-0.10;99.90;;;;;;5011584;28;20049;-81
2022/01/15 04:52:51;;;;;;;141.82;50.03;;;-0.10;99.90;;;;;;5014004;28;20526;-76
2022/01/15 04:55:18;;;;;;;122.57;45.90;;;0.00;99.90;;;;;;5010511;28;20465;-77
2022/01/15 04:57:46;;;;;;;136.13;46.78;;;0.00;99.90;;;;;;5003098;28;20054;-82
2022/01/15 05:00:17;;;;;;;156.07;50.75;;;0.10;99.90;;;;;;4989937;28;20046;-79
2022/01/15 05:02:44;;;;;;;160.43;50.83;;;0.10;99.90;;;;;;4988936;28;20058;-74
2022/01/15 05:05:13;;;;;;;145.77;47.53;;;0.10;99.90;;;;;;4988662;28;20046;-76
2022/01/15 05:07:42;;;;;;;137.32;46.90;;;0.10;99.90;;;;;;4988928;28;20058;-77
2022/01/15 05:10:16;;;;;;;158.68;48.63;;;0.00;99.90;;;;;;4989104;28;20050;-78
2022/01/15 05:12:46;;;;;;;121.90;43.92;;;0.20;99.90;;;;;;4989358;28;20054;-76
2022/01/15 05:15:15;;;;;;;158.23;47.67;;;0.10;99.90;;;;;;4989811;28;20095;-76
2022/01/15 05:17:45;;;;;;;131.20;45.40;;;0.10;99.90;;;;;;4989057;28;20049;-77
2022/01/15 05:20:17;;;;;;;139.32;45.30;;;0.10;99.90;;;;;;4988829;28;20050;-77
2022/01/15 05:22:46;;;;;;;128.90;44.00;;;0.00;99.90;;;;;;4989089;28;20062;-81
2022/01/15 05:25:14;;;;;;;178.65;48.35;;;0.00;99.90;;;;;;4972738;28;20074;-76
2022/01/15 05:27:42;;;;;;;162.50;48.50;;;0.00;99.90;;;;;;4989184;28;20352;-81
2022/01/15 05:30:10;;;;;;;;;;;0.00;99.90;;;;;;4988863;28;20054;-80
2022/01/15 05:32:38;;;;;;;;;;;0.10;99.90;;;;;;4988242;28;20382;-80
2022/01/15 05:35:06;;;;;;;169.93;44.25;;;0.10;99.90;;;;;;4987939;28;19921;-77
2022/01/15 05:37:34;;;;;;;164.05;46.13;;;0.10;99.90;;;;;;4987544;28;20046;-82
2022/01/15 05:40:03;;;;;;;179.75;48.88;;;0.20;99.90;;;;;;4986668;28;20050;-77
2022/01/15 05:42:30;;;;;;;158.82;48.13;;;0.20;99.90;;;;;;4988441;28;20403;-82
2022/01/15 05:44:58;;;;;;;183.75;49.13;;;0.20;99.90;;;;;;4987340;28;20046;-79
2022/01/15 05:47:26;;;;;;;166.07;47.72;;;0.30;99.90;;;;;;4985590;28;20047;-81
2022/01/15 05:49:54;;;;;;;160.65;46.50;;;0.40;99.90;;;;;;4984614;28;20046;-77
2022/01/15 05:52:21;;;;;;;177.02;48.17;;;0.40;99.90;;;;;;4987793;28;20046;-75
2022/01/15 05:54:49;;;;;;;174.82;49.08;;;0.50;99.90;;;;;;4986293;28;20047;-77
2022/01/15 05:57:17;;;;;;;167.65;48.67;;;0.50;99.90;;;;;;4986853;28;20046;-77
2022/01/15 05:59:45;;;;;;;173.45;50.08;;;0.60;99.90;;;;;;4987818;28;20480;-79
2022/01/15 06:02:12;;;;;;;195.88;50.03;;;0.50;99.90;;;;;;4970430;28;20499;-80
2022/01/15 06:04:40;;;;;;;196.98;49.78;;;0.60;99.90;;;;;;4969855;28;20526;-78
2022/01/15 06:07:09;;;;;;;220.23;49.97;;;0.70;99.90;;;;;;4987291;28;20043;-77
2022/01/15 06:09:36;;;;;;;274.08;52.97;;;0.80;99.90;;;;;;4987497;28;20157;-83
2022/01/15 06:12:04;;;;;;;299.05;51.75;;;0.80;99.90;;;;;;4986032;28;20065;-77
2022/01/15 06:14:37;;;;;;;390.10;55.75;;;0.80;99.90;;;;;;4986221;28;20061;-82
2022/01/15 06:17:08;;;;;;;353.42;52.47;;;0.90;99.90;;;;;;4985761;28;20487;-78
2022/01/15 06:19:37;;;;;;;297.58;52.70;;;1.00;99.90;;;;;;4987035;28;20049;-81
2022/01/15 06:22:05;;;;;;;359.92;54.28;;;1.00;99.90;;;;;;4986445;28;20080;-82
2022/01/15 06:24:33;;;;;;;366.33;53.28;;;1.00;99.90;;;;;;4987346;28;20504;-81
2022/01/15 06:27:02;;;;;;;357.45;53.70;;;1.20;99.90;;;;;;4986407;28;20237;-81
2022/01/15 06:29:30;;;;;;;394.08;56.80;;;1.10;99.90;;;;;;4986230;28;20054;-80
2022/01/15 06:31:58;;;;;;;483.77;57.47;;;1.10;99.90;;;;;;4969931;28;20054;-82
2022/01/15 06:34:25;;;;;;;511.63;60.05;;;1.20;99.90;;;;;;4987307;28;20058;-80
2022/01/15 06:36:55;;;;;;;369.10;52.40;;;1.20;99.90;;;;;;4984261;28;20042;-81
2022/01/15 06:39:23;;;;;;;526.03;62.45;;;1.20;99.90;;;;;;4987164;28;20042;-81
2022/01/15 06:41:50;;;;;;;417.52;55.03;;;1.30;99.90;;;;;;4986766;28;20046;-83
2022/01/15 06:44:18;;;;;;;433.33;56.88;;;1.30;99.90;;;;;;4985216;28;20054;-82
2022/01/15 06:46:46;;;;;;;490.67;59.83;;;1.40;99.90;;;;;;4986914;28;20491;-80
2022/01/15 06:49:14;;;;;;;407.23;56.28;;;1.40;99.90;;;;;;4986497;28;20402;-82
2022/01/15 06:51:41;;;;;;;598.30;62.83;;;1.40;99.90;;;;;;4986844;28;20054;-75
2022/01/15 06:54:09;;;;;;;535.70;61.58;;;1.50;99.90;;;;;;4985202;28;20054;-78
2022/01/15 06:56:37;;;;;;;479.15;58.97;;;1.50;99.90;;;;;;4986836;28;20043;-78
2022/01/15 06:59:05;;;;;;;379.65;58.25;;;1.50;99.90;;;;;;4984933;28;20061;-80
2022/01/15 07:01:32;;;;;;;350.02;58.63;;;1.60;99.90;;;;;;4985211;28;20415;-80
2022/01/15 07:04:00;;;;;;;372.77;60.30;;;1.60;99.90;;;;;;4985141;28;20392;-79
2022/01/15 07:06:28;;;;;;;487.30;66.05;;;1.70;99.90;;;;;;4969582;28;20050;-80
2022/01/15 07:08:56;;;;;;;431.58;64.05;;;1.80;99.90;;;;;;4985454;28;20058;-79
2022/01/15 07:11:23;;;;;;;402.50;66.82;;;1.90;99.90;;;;;;4985175;28;20049;-79
2022/01/15 07:13:51;;;;;;;556.15;71.90;;;2.00;99.90;;;;;;4986790;28;20050;-79
2022/01/15 07:16:19;;;;;;;516.78;71.85;;;2.10;99.90;;;;;;4984917;28;20053;-79
2022/01/15 07:18:52;;;;;;;727.38;82.15;;;2.30;99.90;;;;;;4986038;28;20050;-80
2022/01/15 07:21:20;;;;;;;595.55;76.82;;;2.40;99.90;;;;;;4986835;28;20054;-78
2022/01/15 07:23:47;;;;;;;559.28;75.15;;;2.50;99.90;;;;;;4984121;28;20570;-78
2022/01/15 07:26:15;;;;;;;381.55;68.07;;;2.50;99.90;;;;;;4986418;28;20487;-79
2022/01/15 07:28:43;;;;;;;;;;;2.60;99.90;;;;;;4983289;28;20138;-77
2022/01/15 07:31:11;;;;;;;520.15;72.75;;;2.60;99.90;;;;;;4983858;28;19922;-78
2022/01/15 07:33:38;;;;;;;463.63;74.10;;;2.70;99.90;;;;;;4989098;28;20043;-73
2022/01/15 07:36:06;;;;;;;504.45;77.68;;;2.80;99.90;;;;;;5000417;28;20059;-76
2022/01/15 07:38:35;;;;;;;409.98;74.90;;;2.80;99.90;;;;;;5004922;28;20053;-76
2022/01/15 07:41:05;;;;;;;408.70;73.75;;;2.80;99.90;;;;;;5001769;28;20041;-76
2022/01/15 07:43:33;;;;;;;404.10;72.35;;;2.80;99.90;;;;;;5003915;28;20042;-75
2022/01/15 07:46:01;;;;;;;350.80;70.85;;;2.80;99.90;;;;;;5001447;28;20054;-74
2022/01/15 07:48:29;;;;;;;288.58;67.07;;;2.80;99.90;;;;;;4985090;28;20242;-75
2022/01/15 07:50:56;;;;;;;299.85;66.68;;;2.70;99.90;;;;;;4985089;28;20050;-75
2022/01/15 07:53:24;;;;;;;292.85;65.97;;;2.80;99.90;;;;;;4984525;28;20078;-74
2022/01/15 07:55:52;;;;;;;498.48;75.57;;;2.80;99.90;;;;;;4983278;28;20065;-76
2022/01/15 07:58:19;;;;;;;280.77;69.25;;;2.80;99.90;;;;;;4965330;28;20050;-75
2022/01/15 08:00:48;;;;;;;273.38;66.25;;;2.80;99.90;;;;;;4964246;28;20042;-75
2022/01/15 08:03:16;;;;;;;340.13;71.93;;;2.80;99.90;;;;;;4988716;28;20420;-80
2022/01/15 08:05:44;;;;;;;320.88;70.18;;;2.80;99.90;;;;;;4998594;28;20042;-79
2022/01/15 08:08:12;;;;;;;328.55;68.38;;;2.90;99.90;;;;;;4980612;28;20046;-74
2022/01/15 08:10:39;;;;;;;322.98;70.97;;;2.90;99.90;;;;;;4971333;28;20058;-74
2022/01/15 08:13:07;;;;;;;349.38;71.80;;;2.80;99.90;;;;;;4986918;28;20043;-76
2022/01/15 08:15:35;;;;;;;290.92;69.00;;;2.90;99.90;;;;;;4988546;28;20043;-76
2022/01/15 08:18:03;;;;;;;353.98;73.00;;;2.90;99.90;;;;;;4988246;28;20470;-77
2022/01/15 08:20:31;;;;;;;290.48;68.35;;;2.90;99.90;;;;;;4988553;28;20061;-79
2022/01/15 08:22:59;;;;;;;287.65;66.65;;;2.90;99.90;;;;;;4989571;28;20062;-76
2022/01/15 08:25:27;;;;;;;328.58;65.30;;;2.90;99.90;;;;;;4990375;28;20495;-76
2022/01/15 08:27:55;;;;;;;;;;;2.90;99.90;;;;;;4999494;28;20053;-81
2022/01/15 08:30:23;;;;;;;221.38;56.83;;;2.90;99.90;;;;;;4996012;28;20386;-77
2022/01/15 08:32:51;;;;;;;287.00;62.33;;;2.90;99.90;;;;;;4999942;28;20122;-75
2022/01/15 08:35:19;;;;;;;257.80;63.67;;;2.90;99.90;;;;;;5001523;28;20046;-79
2022/01/15 08:37:48;;;;;;;248.07;66.00;;;2.90;99.90;;;;;;4988043;28;20054;-79
2022/01/15 08:40:19;;;;;;;263.67;68.88;;;2.90;99.90;;;;;;4981821;28;20403;-76
2022/01/15 08:42:48;;;;;;;268.70;69.20;;;2.90;99.90;;;;;;4979960;28;20054;-74
2022/01/15 08:45:17;;;;;;;268.92;70.80;;;3.00;99.90;;;;;;4982414;28;20069;-75
2022/01/15 08:47:44;;;;;;;280.42;70.55;;;3.00;99.90;;;;;;4983344;28;20050;-75
2022/01/15 08:50:15;;;;;;;265.90;65.78;;;3.00;99.90;;;;;;4983382;28;20414;-74
2022/01/15 08:52:43;;;;;;;275.75;69.85;;;3.10;99.90;;;;;;4978557;28;20047;-74
2022/01/15 08:55:12;;;;;;;282.40;68.10;;;3.20;99.90;;;;;;4987162;28;20083;-75
2022/01/15 08:57:40;;;;;;;285.33;70.28;;;3.10;99.90;;;;;;4992001;28;20065;-80
2022/01/15 09:00:15;;;;;;;305.73;72.00;;;3.20;99.90;;;;;;4996071;28;20058;-85
2022/01/15 09:02:43;;;;;;;239.55;58.60;;;3.20;99.90;;;;;;4976578;28;20058;-83
2022/01/15 09:05:13;;;;;;;247.75;68.00;;;3.30;99.90;;;;;;4986696;28;20050;-87
2022/01/15 09:07:41;;;;;;;246.98;66.80;;;3.30;99.90;;;;;;4969732;28;20046;-83
2022/01/15 09:10:09;;;;;;;248.25;68.15;;;3.30;99.90;;;;;;4969600;28;20455;-81
2022/01/15 09:12:41;;;;;;;247.43;66.13;;;3.40;99.90;;;;;;5000758;28;20046;-80
2022/01/15 09:15:28;;;;;;;237.23;63.25;;;3.50;99.90;;;;;;4987881;28;20038;-79
2022/01/15 09:17:56;;;;;;;;;;;3.60;99.90;;;;;;5005425;28;20050;-81
2022/01/15 09:20:23;;;;;;;235.52;60.00;;;3.50;99.90;;;;;;5001826;28;19921;-77
2022/01/15 09:22:51;;;;;;;240.48;63.40;;;3.50;99.90;;;;;;4999066;28;20906;-83
2022/01/15 09:25:19;;;;;;;191.95;55.97;;;3.50;99.90;;;;;;4997574;28;20050;-85
2022/01/15 09:30:33;;;;;;;238.88;66.35;;;3.60;99.90;;;;;;5004355;28;20039;-83
2022/01/15 09:33:03;;;;;;;262.70;72.22;;;3.70;99.90;;;;;;5003988;28;20239;-83
2022/01/15 09:35:32;;;;;;;277.38;75.05;;;3.70;99.90;;;;;;4978537;28;20058;-83
2022/01/15 09:38:05;;;;;;;296.10;73.30;;;3.60;99.90;;;;;;4988652;28;20050;-83
2022/01/15 09:40:35;;;;;;;270.42;68.63;;;3.70;99.90;;;;;;4990863;28;20045;-81
2022/01/15 09:43:03;;;;;;;268.83;68.70;;;3.70;99.90;;;;;;5006151;28;20092;-84
2022/01/15 09:45:34;;;;;;;282.70;69.95;;;3.70;99.90;;;;;;5006086;28;20045;-81
2022/01/15 09:48:04;;;;;;;290.52;68.85;;;3.80;99.90;;;;;;5001874;28;20517;-84
2022/01/15 09:50:35;;;;;;;317.13;71.07;;;3.90;99.90;;;;;;4987029;28;20509;-81
2022/01/15 09:53:04;;;;;;;301.50;71.78;;;3.90;99.90;;;;;;4997464;28;20050;-79
2022/01/15 09:55:31;;;;;;;314.98;71.35;;;4.00;99.90;;;;;;4995843;28;20054;-79
2022/01/15 09:57:59;;;;;;;274.38;67.07;;;4.00;99.90;;;;;;5007066;28;20065;-81
2022/01/15 10:00:27;;;;;;;232.85;65.75;;;4.10;99.90;;;;;;5006195;28;20068;-81
2022/01/15 10:03:01;;;;;;;263.02;66.18;;;4.20;99.90;;;;;;5007028;28;20060;-82
2022/01/15 10:05:29;;;;;;;220.43;63.75;;;4.20;99.90;;;;;;5014556;28;20065;-83
2022/01/15 10:08:00;;;;;;;253.80;66.95;;;4.20;99.90;;;;;;5031636;28;20041;-82
2022/01/15 10:10:34;;;;;;;219.57;66.60;;;4.40;99.90;;;;;;5005995;28;20046;-81
2022/01/15 10:13:11;;;;;;;217.80;63.53;;;4.30;99.90;;;;;;4986020;28;20049;-84
2022/01/15 10:15:39;;;;;;;198.20;61.93;;;4.40;99.90;;;;;;4992142;28;20046;-86
2022/01/15 10:18:22;;;;;;;182.00;58.90;;;4.50;99.90;;;;;;4983605;28;20042;-87
2022/01/15 10:20:51;;;;;;;165.60;56.17;;;4.40;99.90;;;;;;4968022;28;20082;-81
2022/01/15 10:23:21;;;;;;;178.43;58.58;;;4.50;99.90;;;;;;4994631;28;20057;-86
2022/01/15 10:26:16;;;;;;;171.25;57.38;;;4.40;99.90;;;;;;5003090;28;20064;-81
2022/01/15 10:29:05;;;;;;;166.88;58.00;;;4.50;99.90;;;;;;4995195;28;20046;-81
2022/01/15 10:31:38;;;;;;;;;;;4.60;99.90;;;;;;5001098;28;20052;-80
2022/01/15 10:34:32;;;;;;;158.98;56.40;;;4.60;99.90;;;;;;5006907;28;20286;-79
2022/01/15 10:37:09;;;;;;;163.57;55.75;;;4.70;99.90;;;;;;5005072;28;20057;-80
2022/01/15 10:39:37;;;;;;;174.02;57.85;;;4.90;99.90;;;;;;5006610;28;20042;-81
2022/01/15 10:42:16;;;;;;;160.38;58.15;;;4.80;99.90;;;;;;4974601;28;20053;-81
2022/01/15 10:44:45;;;;;;;157.82;58.78;;;4.90;99.90;;;;;;4984802;28;20049;-82
2022/01/15 10:47:15;;;;;;;163.88;58.17;;;5.00;99.90;;;;;;5001988;28;20059;-79
2022/01/15 10:49:44;;;;;;;156.43;58.05;;;5.00;99.90;;;;;;4985707;28;20058;-80
2022/01/15 10:52:22;;;;;;;158.07;57.90;;;5.10;99.90;;;;;;4985786;28;20050;-80
2022/01/15 10:54:54;;;;;;;;;;;5.20;99.90;;;;;;4987603;28;20051;-80
2022/01/15 10:57:26;;;;;;;146.20;55.75;;;5.20;99.90;;;;;;4993115;28;20270;-79
2022/01/15 10:59:56;;;;;;;141.15;57.03;;;5.30;99.90;;;;;;5004561;28;20054;-81
2022/01/15 11:02:24;;;;;;;131.57;55.90;;;5.30;99.90;;;;;;5006010;28;20058;-77
2022/01/15 11:04:53;;;;;;;133.75;56.40;;;5.40;99.90;;;;;;4993152;28;20054;-79
2022/01/15 11:07:20;;;;;;;;;;;5.50;99.90;;;;;;4985811;28;20316;-80
2022/01/15 11:09:51;;;;;;;119.18;52.53;;;5.60;99.90;;;;;;4988058;28;19936;-81
2022/01/15 11:12:19;;;;;;;116.10;51.58;;;5.70;99.90;;;;;;4987833;28;20049;-82
2022/01/15 11:14:47;;;;;;;;;;;5.80;99.90;;;;;;4987673;28;20069;-81
2022/01/15 11:17:15;;;;;;;108.75;47.67;;;6.00;99.90;;;;;;4987307;28;19936;-80
2022/01/15 11:19:44;;;;;;;;;;;6.10;99.90;;;;;;4984929;28;20042;-81
2022/01/15 11:22:21;;;;;;;94.47;46.10;;;6.20;99.90;;;;;;4985378;28;19937;-80
2022/01/15 11:24:51;;;;;;;90.95;46.13;;;6.30;99.90;;;;;;4986862;28;20057;-81
2022/01/15 11:27:19;;;;;;;89.72;46.42;;;6.40;99.90;;;;;;4989896;28;20046;-82
2022/01/15 11:29:47;;;;;;;83.55;44.50;;;6.40;99.90;;;;;;5020555;28;20034;-80
2022/01/15 11:32:17;;;;;;;87.65;45.50;;;6.40;99.90;;;;;;4998635;28;20050;-78
2022/01/15 11:35:07;;;;;;;94.55;46.28;;;6.40;99.90;;;;;;4988361;28;20646;-77
2022/01/15 11:37:46;;;;;;;88.68;45.90;;;6.40;99.90;;;;;;4991328;28;20050;-81
2022/01/15 11:40:38;;;;;;;88.28;45.55;;;6.50;99.90;;;;;;5000329;28;20057;-78
2022/01/15 11:43:24;;;;;;;90.80;46.75;;;6.50;99.90;;;;;;4979896;28;20368;-76
2022/01/15 11:45:54;;;;;;;83.55;43.20;;;6.50;99.90;;;;;;4988785;28;20168;-79
2022/01/15 11:48:27;;;;;;;79.30;43.88;;;6.60;99.90;;;;;;4986528;28;20365;-80
2022/01/15 11:51:13;;;;;;;73.55;41.22;;;6.60;99.90;;;;;;4989017;28;20058;-81
2022/01/15 11:54:07;;;;;;;73.30;41.38;;;6.60;99.90;;;;;;4988847;28;20054;-78
2022/01/15 11:56:44;;;;;;;79.55;41.28;;;6.70;99.90;;;;;;4988056;28;20062;-80
2022/01/15 11:59:25;;;;;;;70.63;40.65;;;6.70;99.90;;;;;;4990309;28;20050;-80
2022/01/15 12:01:54;;;;;;;76.47;41.42;;;6.60;99.90;;;;;;4989158;28;20419;-82
2022/01/15 12:04:29;;;;;;;72.25;38.65;;;6.60;99.90;;;;;;4997383;28;20045;-78
2022/01/15 12:07:05;;;;;;;77.75;41.05;;;6.60;99.90;;;;;;5004311;28;20049;-80
2022/01/15 12:09:35;;;;;;;71.18;41.45;;;6.50;99.90;;;;;;5005248;28;20483;-85
2022/01/15 12:12:39;;;;;;;70.10;39.90;;;6.50;99.90;;;;;;5005043;28;20041;-84
2022/01/15 12:15:10;;;;;;;68.60;38.42;;;6.40;99.90;;;;;;4987964;28;20043;-79
2022/01/15 12:17:42;;;;;;;63.85;37.25;;;6.30;99.90;;;;;;4986099;28;20057;-78
2022/01/15 12:20:25;;;;;;;62.22;35.92;;;6.30;99.90;;;;;;4996592;28;20360;-78
2022/01/15 12:23:01;;;;;;;54.80;32.10;;;6.20;99.90;;;;;;5008435;28;20046;-77
2022/01/15 12:25:36;;;;;;;53.95;31.40;;;6.20;99.90;;;;;;5007297;28;20065;-80
2022/01/15 12:28:06;;;;;;;54.53;30.48;;;6.10;99.90;;;;;;5006722;28;20042;-79
2022/01/15 12:30:42;;;;;;;57.65;33.90;;;6.10;99.90;;;;;;5009027;28;20046;-77
2022/01/15 12:33:13;;;;;;;55.28;33.10;;;6.10;99.90;;;;;;4991545;28;20350;-77
2022/01/15 12:35:56;;;;;;;52.58;29.17;;;6.00;99.90;;;;;;5007284;28;20045;-82
2022/01/15 12:38:26;;;;;;;53.30;33.72;;;6.00;99.90;;;;;;4994937;28;20035;-83
2022/01/15 12:41:04;;;;;;;57.40;33.47;;;5.90;99.90;;;;;;4989583;28;20057;-81
2022/01/15 12:43:37;;;;;;;59.95;34.45;;;5.90;99.90;;;;;;4989368;28;20035;-80
2022/01/15 12:46:16;;;;;;;55.45;34.45;;;5.90;99.90;;;;;;4986074;28;20058;-79
2022/01/15 12:48:46;;;;;;;54.47;33.45;;;5.90;99.90;;;;;;4988028;28;20058;-80
2022/01/15 12:51:20;;;;;;;56.63;34.70;;;6.00;99.90;;;;;;4988039;28;20479;-82
2022/01/15 12:53:53;;;;;;;58.13;33.08;;;5.90;99.90;;;;;;4968096;28;20050;-81
2022/01/15 12:56:21;;;;;;;54.20;33.70;;;6.00;99.90;;;;;;4969220;28;20058;-81
2022/01/15 12:58:52;;;;;;;57.10;33.25;;;5.90;99.90;;;;;;4951227;28;20515;-80
2022/01/15 13:01:24;;;;;;;54.83;31.42;;;5.90;99.90;;;;;;4977673;28;20038;-80
2022/01/15 13:03:52;;;;;;;53.72;31.27;;;5.90;99.90;;;;;;5005856;28;20053;-79
2022/01/15 13:06:26;;;;;;;51.40;30.50;;;5.90;99.90;;;;;;5004907;28;20049;-77
2022/01/15 13:08:58;;;;;;;48.40;27.42;;;5.90;99.90;;;;;;5017148;28;20061;-79
2022/01/15 13:11:28;;;;;;;53.08;30.30;;;5.80;99.90;;;;;;5003168;28;20045;-76
2022/01/15 13:14:04;;;;;;;54.97;30.90;;;5.80;99.90;;;;;;5001405;28;20050;-77
2022/01/15 13:16:32;;;;;;;54.63;30.77;;;5.70;99.90;;;;;;5004384;28;20514;-76